createdAt,value
2018-11-20T00:01:03.230Z,0
2018-11-20T00:02:12.781Z,0
2018-11-20T00:03:22.746Z,0
2018-11-20T00:04:32.550Z,0
2018-11-20T00:05:42.357Z,0
2018-11-20T00:06:51.907Z,0
2018-11-20T00:08:01.984Z,0
2018-11-20T00:09:12.101Z,0
2018-11-20T00:10:21.924Z,0
2018-11-20T00:11:31.988Z,0
2018-11-20T00:12:41.540Z,0
2018-11-20T00:13:51.599Z,0
2018-11-20T00:15:00.864Z,0
2018-11-20T00:16:10.659Z,0
2018-11-20T00:17:20.458Z,0
2018-11-20T00:18:30.266Z,0
2018-11-20T00:19:40.329Z,0
2018-11-20T00:20:50.147Z,0
2018-11-20T00:21:59.693Z,0
2018-11-20T00:23:09.233Z,0
2018-11-20T00:24:19.315Z,0
2018-11-20T00:25:29.130Z,0
2018-11-20T00:26:38.945Z,0
2018-11-20T00:27:49.103Z,0
2018-11-20T00:28:58.629Z,0
2018-11-20T00:30:08.681Z,0
2018-11-20T00:31:18.764Z,0
2018-11-20T00:32:28.598Z,0
2018-11-20T00:33:38.393Z,0
2018-11-20T00:34:48.238Z,0
2018-11-20T00:35:58.330Z,0
2018-11-20T00:37:08.134Z,0
2018-11-20T00:38:17.671Z,0
2018-11-20T00:39:27.732Z,0
2018-11-20T00:40:37.788Z,0
2018-11-20T00:41:47.586Z,0
2018-11-20T00:42:57.651Z,0
2018-11-20T00:44:08.517Z,0
2018-11-20T00:45:18.592Z,0
2018-11-20T00:46:28.394Z,0
2018-11-20T00:47:38.232Z,0
2018-11-20T00:48:47.785Z,0
2018-11-20T00:49:57.063Z,0
2018-11-20T00:51:06.858Z,0
2018-11-20T00:52:16.924Z,0
2018-11-20T00:53:26.722Z,0
2018-11-20T00:54:36.556Z,0
2018-11-20T00:55:46.092Z,0
2018-11-20T00:56:56.150Z,0
2018-11-20T00:58:05.690Z,0
2018-11-20T00:59:15.484Z,0
2018-11-20T01:00:25.279Z,0
2018-11-20T01:01:35.420Z,0
2018-11-20T01:02:45.480Z,0
2018-11-20T01:03:57.013Z,0
2018-11-20T01:05:08.302Z,0
2018-11-20T01:06:18.363Z,0
2018-11-20T01:07:28.152Z,0
2018-11-20T01:08:37.953Z,0
2018-11-20T01:09:48.029Z,0
2018-11-20T01:10:57.567Z,0
2018-11-20T01:12:07.634Z,0
2018-11-20T01:13:17.314Z,0
2018-11-20T01:14:26.850Z,0
2018-11-20T01:15:36.379Z,0
2018-11-20T01:16:46.172Z,0
2018-11-20T01:17:56.247Z,0
2018-11-20T01:19:06.364Z,0
2018-11-20T01:20:15.637Z,0
2018-11-20T01:21:25.716Z,0
2018-11-20T01:22:35.798Z,0
2018-11-20T01:23:45.600Z,0
2018-11-20T01:24:55.432Z,0
2018-11-20T01:26:05.231Z,0
2018-11-20T01:27:15.069Z,0
2018-11-20T01:28:24.346Z,0
2018-11-20T01:29:34.138Z,0
2018-11-20T01:30:43.947Z,0
2018-11-20T01:31:53.749Z,0
2018-11-20T01:33:03.563Z,0
2018-11-20T01:34:13.655Z,0
2018-11-20T01:35:23.719Z,0
2018-11-20T01:36:33.572Z,0
2018-11-20T01:37:43.637Z,0
2018-11-20T01:38:53.738Z,0
2018-11-20T01:40:03.545Z,0
2018-11-20T01:41:12.844Z,0
2018-11-20T01:42:22.431Z,0
2018-11-20T01:43:32.500Z,0
2018-11-20T01:44:42.032Z,0
2018-11-20T01:45:51.559Z,0
2018-11-20T01:47:01.370Z,0
2018-11-20T01:48:10.919Z,0
2018-11-20T01:49:20.986Z,0
2018-11-20T01:50:30.780Z,0
2018-11-20T01:51:40.792Z,0
2018-11-20T01:52:50.868Z,0
2018-11-20T01:54:00.687Z,0
2018-11-20T01:55:12.195Z,0
2018-11-20T01:56:22.006Z,0
2018-11-20T01:57:32.317Z,0
2018-11-20T01:58:42.362Z,0
2018-11-20T01:59:52.162Z,0
2018-11-20T02:01:02.231Z,0
2018-11-20T02:02:12.283Z,0
2018-11-20T02:03:21.829Z,0
2018-11-20T02:04:31.941Z,0
2018-11-20T02:05:41.778Z,0
2018-11-20T02:06:51.048Z,0
2018-11-20T02:08:01.130Z,0
2018-11-20T02:09:10.411Z,0
2018-11-20T02:10:20.478Z,0
2018-11-20T02:11:30.069Z,0
2018-11-20T02:12:40.193Z,0
2018-11-20T02:13:50.008Z,0
2018-11-20T02:15:00.083Z,0
2018-11-20T02:16:10.663Z,0
2018-11-20T02:17:19.996Z,0
2018-11-20T02:18:29.536Z,0
2018-11-20T02:19:39.327Z,0
2018-11-20T02:20:49.126Z,0
2018-11-20T02:21:59.200Z,0
2018-11-20T02:23:09.272Z,0
2018-11-20T02:24:19.101Z,0
2018-11-20T02:25:29.161Z,0
2018-11-20T02:26:39.232Z,0
2018-11-20T02:27:49.028Z,0
2018-11-20T02:28:59.133Z,0
2018-11-20T02:30:09.198Z,0
2018-11-20T02:31:19.271Z,0
2018-11-20T02:32:28.868Z,0
2018-11-20T02:33:38.739Z,0
2018-11-20T02:34:48.782Z,0
2018-11-20T02:35:58.582Z,0
2018-11-20T02:37:08.649Z,0
2018-11-20T02:38:18.436Z,0
2018-11-20T02:39:27.992Z,0
2018-11-20T02:40:37.836Z,0
2018-11-20T02:41:47.889Z,0
2018-11-20T02:42:57.940Z,0
2018-11-20T02:44:07.990Z,0
2018-11-20T02:45:18.055Z,0
2018-11-20T02:46:27.852Z,0
2018-11-20T02:47:37.681Z,0
2018-11-20T02:48:47.470Z,0
2018-11-20T02:49:57.558Z,0
2018-11-20T02:51:10.176Z,0
2018-11-20T02:52:19.711Z,0
2018-11-20T02:53:29.785Z,0
2018-11-20T02:54:39.851Z,0
2018-11-20T02:55:49.908Z,0
2018-11-20T02:56:59.718Z,0
2018-11-20T02:58:09.904Z,0
2018-11-20T02:59:19.697Z,0
2018-11-20T03:00:29.225Z,0
2018-11-20T03:01:39.039Z,0
2018-11-20T03:02:48.826Z,0
2018-11-20T03:35:04.768Z,0
2018-11-20T03:36:15.470Z,0
2018-11-20T03:37:25.602Z,0
2018-11-20T03:38:35.702Z,0
2018-11-20T03:39:45.547Z,0
2018-11-20T03:40:55.703Z,0
2018-11-20T03:42:05.758Z,0
2018-11-20T03:43:15.826Z,0
2018-11-20T03:44:25.604Z,0
2018-11-20T03:45:35.669Z,0
2018-11-20T03:46:45.777Z,0
2018-11-20T03:47:56.421Z,0
2018-11-20T03:49:06.523Z,0
2018-11-20T03:50:16.592Z,0
2018-11-20T03:51:26.656Z,0
2018-11-20T03:52:36.458Z,0
2018-11-20T03:53:46.518Z,0
2018-11-20T03:54:56.313Z,0
2018-11-20T03:56:06.372Z,0
2018-11-20T03:57:16.453Z,0
2018-11-20T03:58:26.297Z,0
2018-11-20T03:59:36.090Z,0
2018-11-20T04:00:45.884Z,0
2018-11-20T04:01:55.981Z,0
2018-11-20T04:03:07.272Z,0
2018-11-20T04:04:17.337Z,0
2018-11-20T04:05:27.141Z,0
2018-11-20T04:06:36.690Z,0
2018-11-20T04:07:45.951Z,0
2018-11-20T04:08:55.509Z,0
2018-11-20T04:10:05.356Z,0
2018-11-20T04:11:15.397Z,0
2018-11-20T04:12:25.176Z,0
2018-11-20T04:13:34.707Z,0
2018-11-20T04:14:44.238Z,0
2018-11-20T04:15:54.048Z,0
2018-11-20T04:17:04.110Z,0
2018-11-20T04:18:14.143Z,0
2018-11-20T04:19:23.951Z,0
2018-11-20T04:20:33.752Z,0
2018-11-20T04:21:43.804Z,0
2018-11-20T04:22:53.614Z,0
2018-11-20T04:24:03.168Z,0
2018-11-20T04:25:13.233Z,0
2018-11-20T04:26:22.819Z,0
2018-11-20T04:27:32.875Z,0
2018-11-20T04:28:42.734Z,0
2018-11-20T04:29:52.285Z,0
2018-11-20T04:31:01.572Z,0
2018-11-20T04:32:12.036Z,0
2018-11-20T04:33:21.886Z,0
2018-11-20T04:34:31.689Z,0
2018-11-20T04:35:41.223Z,0
2018-11-20T04:36:51.026Z,0
2018-11-20T04:38:00.564Z,0
2018-11-20T04:39:10.609Z,0
2018-11-20T04:40:20.677Z,0
2018-11-20T04:41:31.079Z,0
2018-11-20T04:42:40.919Z,0
2018-11-20T04:43:50.200Z,0
2018-11-20T04:45:00.055Z,0
2018-11-20T04:46:12.244Z,0
2018-11-20T04:47:22.306Z,0
2018-11-20T04:48:31.840Z,0
2018-11-20T04:49:42.014Z,0
2018-11-20T04:50:52.184Z,0
2018-11-20T04:52:02.004Z,0
2018-11-20T04:53:12.069Z,0
2018-11-20T04:54:21.866Z,0
2018-11-20T04:55:31.927Z,0
2018-11-20T04:56:42.026Z,0
2018-11-20T04:57:52.293Z,0
2018-11-20T04:59:02.352Z,0
2018-11-20T05:00:12.426Z,0
2018-11-20T05:01:21.979Z,0
2018-11-20T05:02:32.043Z,0
2018-11-20T05:03:42.125Z,0
2018-11-20T05:04:51.668Z,0
2018-11-20T05:06:01.210Z,0
2018-11-20T05:07:10.480Z,0
2018-11-20T05:08:20.308Z,0
2018-11-20T05:09:30.360Z,0
2018-11-20T05:10:39.900Z,0
2018-11-20T05:11:49.969Z,0
2018-11-20T05:12:59.752Z,0
2018-11-20T05:14:09.718Z,0
2018-11-20T05:15:19.256Z,0
2018-11-20T05:16:29.320Z,0
2018-11-20T05:17:39.104Z,0
2018-11-20T05:18:49.168Z,0
2018-11-20T05:19:59.217Z,0
2018-11-20T05:21:08.493Z,0
2018-11-20T05:22:18.568Z,0
2018-11-20T05:23:28.643Z,0
2018-11-20T05:24:38.443Z,0
2018-11-20T05:25:48.617Z,0
2018-11-20T05:26:57.927Z,0
2018-11-20T05:28:08.574Z,0
2018-11-20T05:29:18.268Z,0
2018-11-20T05:30:28.114Z,0
2018-11-20T05:31:38.272Z,0
2018-11-20T05:32:48.123Z,0
2018-11-20T05:33:57.922Z,0
2018-11-20T05:35:10.008Z,0
2018-11-20T05:36:19.784Z,0
2018-11-20T05:37:29.851Z,0
2018-11-20T05:38:39.908Z,0
2018-11-20T05:39:49.986Z,0
2018-11-20T05:40:59.807Z,0
2018-11-20T05:42:09.697Z,0
2018-11-20T05:43:19.769Z,0
2018-11-20T05:44:29.578Z,0
2018-11-20T05:45:39.628Z,0
2018-11-20T05:46:49.910Z,0
2018-11-20T05:47:59.756Z,0
2018-11-20T05:49:10.548Z,0
2018-11-20T05:50:20.651Z,0
2018-11-20T05:51:30.446Z,0
2018-11-20T05:52:40.246Z,0
2018-11-20T05:53:50.295Z,0
2018-11-20T05:55:00.086Z,0
2018-11-20T05:56:09.728Z,0
2018-11-20T05:57:19.264Z,0
2018-11-20T05:58:29.321Z,0
2018-11-20T05:59:39.139Z,0
2018-11-20T06:00:48.924Z,0
2018-11-20T06:01:58.978Z,0
2018-11-20T06:03:08.779Z,0
2018-11-20T06:04:18.579Z,0
2018-11-20T06:05:28.401Z,0
2018-11-20T06:06:37.955Z,0
2018-11-20T06:07:47.750Z,0
2018-11-20T06:08:57.029Z,0
2018-11-20T06:10:08.174Z,0
2018-11-20T06:11:17.967Z,0
2018-11-20T06:12:27.800Z,0
2018-11-20T06:13:37.995Z,0
2018-11-20T06:14:48.054Z,0
2018-11-20T06:15:57.858Z,0
2018-11-20T06:17:07.382Z,0
2018-11-20T06:18:17.441Z,0
2018-11-20T06:19:27.350Z,0
2018-11-20T06:20:37.414Z,0
2018-11-20T06:21:47.238Z,0
2018-11-20T06:22:57.039Z,0
2018-11-20T06:24:06.848Z,0
2018-11-20T06:25:16.920Z,0
2018-11-20T06:26:26.463Z,0
2018-11-20T06:27:36.517Z,0
2018-11-20T06:28:46.777Z,0
2018-11-20T06:29:56.925Z,0
2018-11-20T06:31:06.520Z,5
2018-11-20T06:32:16.596Z,5
2018-11-20T06:33:26.668Z,5
2018-11-20T06:34:36.954Z,5
2018-11-20T06:35:46.768Z,5
2018-11-20T06:36:56.583Z,5
2018-11-20T06:38:06.651Z,5
2018-11-20T06:39:16.205Z,5
2018-11-20T06:40:25.744Z,5
2018-11-20T06:41:35.959Z,5
2018-11-20T06:42:46.006Z,5
2018-11-20T06:43:55.535Z,5
2018-11-20T06:45:05.077Z,5
2018-11-20T06:46:14.609Z,5
2018-11-20T06:47:25.065Z,5
2018-11-20T06:48:34.733Z,5
2018-11-20T06:49:44.542Z,5
2018-11-20T06:50:54.360Z,5
2018-11-20T06:52:04.170Z,5
2018-11-20T06:53:15.137Z,5
2018-11-20T06:54:24.895Z,5
2018-11-20T06:55:34.967Z,10
2018-11-20T06:56:45.028Z,10
2018-11-20T06:57:54.837Z,10
2018-11-20T06:59:04.667Z,10
2018-11-20T07:00:14.566Z,10
2018-11-20T07:01:24.873Z,10
2018-11-20T07:02:34.995Z,10
2018-11-20T07:03:45.068Z,10
2018-11-20T07:04:54.864Z,10
2018-11-20T07:06:04.641Z,10
2018-11-20T07:07:14.832Z,10
2018-11-20T07:08:25.209Z,10
2018-11-20T07:09:35.486Z,10
2018-11-20T07:10:45.294Z,10
2018-11-20T07:11:55.226Z,10
2018-11-20T07:13:05.296Z,10
2018-11-20T07:14:15.087Z,10
2018-11-20T07:15:25.724Z,10
2018-11-20T07:16:36.396Z,10
2018-11-20T07:17:46.450Z,10
2018-11-20T07:18:56.248Z,10
2018-11-20T07:20:06.047Z,10
2018-11-20T07:21:15.863Z,10
2018-11-20T07:22:25.896Z,10
2018-11-20T07:23:35.710Z,10
2018-11-20T07:24:45.467Z,10
2018-11-20T07:25:55.526Z,10
2018-11-20T07:27:05.341Z,10
2018-11-20T07:28:15.405Z,10
2018-11-20T07:29:25.630Z,15
2018-11-20T07:30:36.232Z,15
2018-11-20T07:31:46.683Z,10
2018-11-20T07:32:56.275Z,10
2018-11-20T07:34:06.086Z,10
2018-11-20T07:35:15.649Z,10
2018-11-20T07:36:26.335Z,10
2018-11-20T07:37:36.568Z,10
2018-11-20T07:38:46.359Z,10
2018-11-20T07:39:56.168Z,10
2018-11-20T07:41:05.691Z,10
2018-11-20T07:42:15.509Z,10
2018-11-20T07:43:26.171Z,10
2018-11-20T07:44:35.682Z,10
2018-11-20T07:45:45.482Z,10
2018-11-20T07:46:55.344Z,10
2018-11-20T07:48:06.422Z,10
2018-11-20T07:49:16.221Z,10
2018-11-20T07:50:26.028Z,10
2018-11-20T07:51:36.282Z,10
2018-11-20T07:52:46.399Z,10
2018-11-20T07:53:56.467Z,10
2018-11-20T07:55:07.221Z,10
2018-11-20T07:56:18.362Z,10
2018-11-20T07:57:28.395Z,10
2018-11-20T07:58:38.196Z,10
2018-11-20T07:59:48.270Z,15
2018-11-20T08:00:58.322Z,15
2018-11-20T08:02:08.291Z,15
2018-11-20T08:03:18.593Z,15
2018-11-20T08:04:28.662Z,20
2018-11-20T08:05:38.760Z,20
2018-11-20T08:06:48.835Z,25
2018-11-20T08:07:58.849Z,30
2018-11-20T08:09:10.539Z,35
2018-11-20T08:10:20.654Z,35
2018-11-20T08:11:30.753Z,40
2018-11-20T08:12:40.815Z,40
2018-11-20T08:13:50.295Z,40
2018-11-20T08:15:00.343Z,40
2018-11-20T08:16:12.348Z,45
2018-11-20T08:17:21.474Z,40
2018-11-20T08:18:31.573Z,40
2018-11-20T08:19:41.375Z,40
2018-11-20T08:20:51.442Z,40
2018-11-20T08:22:02.175Z,40
2018-11-20T08:23:12.010Z,40
2018-11-20T08:24:22.129Z,40
2018-11-20T08:25:32.753Z,40
2018-11-20T08:26:43.248Z,40
2018-11-20T08:27:53.195Z,40
2018-11-20T08:29:03.414Z,40
2018-11-20T08:30:13.540Z,35
2018-11-20T08:31:23.097Z,35
2018-11-20T08:32:32.918Z,35
2018-11-20T08:33:42.862Z,35
2018-11-20T08:34:52.493Z,35
2018-11-20T08:36:02.760Z,35
2018-11-20T08:37:12.145Z,35
2018-11-20T08:38:22.010Z,40
2018-11-20T08:39:32.076Z,40
2018-11-20T08:40:41.894Z,40
2018-11-20T08:41:51.427Z,40
2018-11-20T08:43:01.578Z,40
2018-11-20T08:44:11.698Z,40
2018-11-20T08:45:21.775Z,40
2018-11-20T08:46:31.579Z,40
2018-11-20T08:47:41.750Z,40
2018-11-20T08:48:51.893Z,40
2018-11-20T08:50:01.680Z,40
2018-11-20T08:51:11.486Z,35
2018-11-20T08:52:21.041Z,35
2018-11-20T08:53:30.428Z,40
2018-11-20T08:54:40.503Z,40
2018-11-20T08:55:50.578Z,40
2018-11-20T08:57:04.139Z,40
2018-11-20T08:58:14.363Z,40
2018-11-20T08:59:24.158Z,40
2018-11-20T09:00:34.255Z,35
2018-11-20T09:01:44.319Z,35
2018-11-20T09:02:54.434Z,35
2018-11-20T09:04:03.960Z,35
2018-11-20T09:05:13.772Z,35
2018-11-20T09:06:23.850Z,35
2018-11-20T09:07:33.936Z,40
2018-11-20T09:08:43.991Z,40
2018-11-20T09:09:54.239Z,40
2018-11-20T09:11:04.081Z,40
2018-11-20T09:12:14.166Z,40
2018-11-20T09:13:24.234Z,40
2018-11-20T09:14:34.075Z,40
2018-11-20T09:15:43.609Z,40
2018-11-20T09:16:53.501Z,40
2018-11-20T09:18:04.163Z,40
2018-11-20T09:19:13.932Z,40
2018-11-20T09:20:24.676Z,35
2018-11-20T09:21:34.977Z,35
2018-11-20T09:22:45.093Z,30
2018-11-20T09:23:54.639Z,30
2018-11-20T09:25:04.457Z,30
2018-11-20T09:26:14.245Z,30
2018-11-20T09:27:24.405Z,25
2018-11-20T09:28:34.218Z,25
2018-11-20T09:29:44.033Z,25
2018-11-20T09:30:54.126Z,25
2018-11-20T09:32:03.940Z,25
2018-11-20T09:33:13.759Z,25
2018-11-20T09:34:23.953Z,30
2018-11-20T09:35:35.786Z,30
2018-11-20T09:36:45.310Z,30
2018-11-20T09:37:55.432Z,30
2018-11-20T09:39:08.275Z,25
2018-11-20T09:40:17.813Z,30
2018-11-20T09:41:27.876Z,30
2018-11-20T09:42:37.682Z,30
2018-11-20T09:43:47.765Z,30
2018-11-20T09:44:57.330Z,30
2018-11-20T09:46:07.297Z,30
2018-11-20T09:47:17.649Z,35
2018-11-20T09:48:27.726Z,30
2018-11-20T09:49:37.543Z,30
2018-11-20T09:50:47.345Z,30
2018-11-20T09:51:57.160Z,30
2018-11-20T09:53:07.123Z,30
2018-11-20T09:54:17.528Z,35
2018-11-20T09:55:27.336Z,35
2018-11-20T09:56:37.693Z,35
2018-11-20T09:57:47.524Z,35
2018-11-20T09:58:57.068Z,35
2018-11-20T10:00:06.606Z,35
2018-11-20T10:01:16.448Z,35
2018-11-20T10:02:26.538Z,35
2018-11-20T10:03:36.802Z,35
2018-11-20T10:04:46.671Z,35
2018-11-20T10:05:56.463Z,35
2018-11-20T10:07:07.720Z,35
2018-11-20T10:08:17.885Z,35
2018-11-20T10:09:27.999Z,35
2018-11-20T10:10:38.111Z,35
2018-11-20T10:11:47.953Z,35
2018-11-20T10:12:58.031Z,35
2018-11-20T10:14:08.690Z,30
2018-11-20T10:15:19.690Z,25
2018-11-20T10:16:29.137Z,30
2018-11-20T10:17:39.220Z,30
2018-11-20T10:18:49.281Z,30
2018-11-20T10:19:59.147Z,30
2018-11-20T10:21:09.220Z,30
2018-11-20T10:22:19.832Z,30
2018-11-20T10:23:29.823Z,30
2018-11-20T10:24:39.875Z,30
2018-11-20T10:25:51.383Z,30
2018-11-20T10:27:00.731Z,30
2018-11-20T10:28:10.673Z,30
2018-11-20T10:29:20.712Z,25
2018-11-20T10:30:30.565Z,25
2018-11-20T10:31:40.645Z,30
2018-11-20T10:32:50.228Z,30
2018-11-20T10:34:00.035Z,30
2018-11-20T10:35:10.561Z,30
2018-11-20T10:36:20.377Z,30
2018-11-20T10:37:30.573Z,30
2018-11-20T10:38:40.370Z,30
2018-11-20T10:39:50.180Z,30
2018-11-20T10:41:00.071Z,30
2018-11-20T10:42:10.252Z,30
2018-11-20T10:43:20.224Z,25
2018-11-20T10:44:30.040Z,25
2018-11-20T10:45:40.721Z,25
2018-11-20T10:46:50.920Z,25
2018-11-20T10:48:01.001Z,25
2018-11-20T10:49:12.816Z,25
2018-11-20T10:50:22.365Z,25
2018-11-20T10:51:31.927Z,25
2018-11-20T10:52:42.264Z,25
2018-11-20T10:53:52.281Z,20
2018-11-20T10:55:01.875Z,25
2018-11-20T10:56:11.931Z,25
2018-11-20T10:57:21.868Z,25
2018-11-20T10:58:31.684Z,25
2018-11-20T10:59:42.178Z,25
2018-11-20T11:00:52.325Z,25
2018-11-20T11:02:02.129Z,25
2018-11-20T11:03:12.243Z,25
2018-11-20T11:04:22.498Z,30
2018-11-20T11:05:32.191Z,25
2018-11-20T11:06:42.218Z,25
2018-11-20T11:07:53.667Z,25
2018-11-20T11:09:04.483Z,20
2018-11-20T11:10:13.505Z,20
2018-11-20T11:11:23.426Z,20
2018-11-20T11:12:40.235Z,20
2018-11-20T11:13:58.367Z,20
2018-11-20T11:15:13.206Z,15
2018-11-20T11:16:26.221Z,20
2018-11-20T11:17:39.562Z,20
2018-11-20T11:18:54.036Z,25
2018-11-20T11:20:07.876Z,20
2018-11-20T11:21:22.037Z,20
2018-11-20T11:22:34.746Z,25
2018-11-20T11:23:47.552Z,25
2018-11-20T11:25:00.559Z,20
2018-11-20T11:26:13.907Z,25
2018-11-20T11:27:29.127Z,25
2018-11-20T11:28:43.138Z,25
2018-11-20T11:29:56.212Z,25
2018-11-20T11:31:07.100Z,25
2018-11-20T11:32:17.606Z,25
2018-11-20T11:33:37.237Z,30
2018-11-20T11:34:48.079Z,35
2018-11-20T11:35:58.103Z,35
2018-11-20T11:37:07.712Z,40
2018-11-20T11:38:17.568Z,35
2018-11-20T11:39:27.714Z,40
2018-11-20T11:40:37.646Z,40
2018-11-20T11:41:47.467Z,40
2018-11-20T11:42:57.569Z,40
2018-11-20T11:44:07.655Z,35
2018-11-20T11:45:17.638Z,35
2018-11-20T11:46:27.539Z,35
2018-11-20T11:47:37.380Z,35
2018-11-20T11:48:47.467Z,35
2018-11-20T11:49:57.541Z,35
2018-11-20T11:51:07.352Z,30
2018-11-20T11:52:17.437Z,30
2018-11-20T11:53:27.073Z,30
2018-11-20T11:54:37.143Z,25
2018-11-20T11:55:46.968Z,25
2018-11-20T11:56:57.059Z,25
2018-11-20T11:58:07.136Z,25
2018-11-20T11:59:16.959Z,25
2018-11-20T12:00:27.033Z,25
2018-11-20T12:03:54.540Z,25
2018-11-20T12:05:04.617Z,25
2018-11-20T12:06:14.413Z,25
2018-11-20T12:07:24.057Z,25
2018-11-20T12:08:33.959Z,25
2018-11-20T12:09:43.786Z,30
2018-11-20T12:10:52.816Z,30
2018-11-20T12:12:02.924Z,30
2018-11-20T12:13:12.737Z,30
2018-11-20T12:14:22.540Z,30
2018-11-20T12:15:33.240Z,30
2018-11-20T12:16:43.300Z,30
2018-11-20T12:17:53.131Z,35
2018-11-20T12:19:05.474Z,35
2018-11-20T12:20:15.656Z,35
2018-11-20T12:21:25.513Z,30
2018-11-20T12:22:35.338Z,30
2018-11-20T12:23:45.132Z,30
2018-11-20T12:24:56.864Z,30
2018-11-20T12:26:06.719Z,30
2018-11-20T12:27:16.863Z,25
2018-11-20T12:28:26.694Z,25
2018-11-20T12:29:43.560Z,25
2018-11-20T12:30:53.559Z,30
2018-11-20T12:32:03.809Z,30
2018-11-20T12:33:13.937Z,30
2018-11-20T12:34:26.204Z,25
2018-11-20T12:35:43.402Z,35
2018-11-20T12:36:53.782Z,40
2018-11-20T12:38:05.704Z,35
2018-11-20T12:39:15.763Z,35
2018-11-20T12:40:26.501Z,35
2018-11-20T12:41:39.711Z,30
2018-11-20T12:42:51.286Z,30
2018-11-20T12:44:08.108Z,30
2018-11-20T12:45:20.370Z,30
2018-11-20T12:46:32.205Z,30
2018-11-20T12:47:45.192Z,25
2018-11-20T12:48:56.281Z,25
2018-11-20T12:50:08.559Z,20
2018-11-20T12:51:20.148Z,20
2018-11-20T12:52:33.963Z,20
2018-11-20T12:53:47.985Z,20
2018-11-20T12:54:59.892Z,20
2018-11-20T12:56:09.483Z,20
2018-11-20T12:57:21.208Z,20
2018-11-20T12:58:30.764Z,20
2018-11-20T12:59:42.402Z,20
2018-11-20T13:00:51.679Z,25
2018-11-20T13:02:02.233Z,25
2018-11-20T13:03:12.082Z,25
2018-11-20T13:04:21.893Z,25
2018-11-20T13:05:33.492Z,25
2018-11-20T13:06:43.091Z,25
2018-11-20T13:07:53.086Z,25
2018-11-20T13:09:05.413Z,20
2018-11-20T13:10:15.265Z,25
2018-11-20T13:11:24.850Z,20
2018-11-20T13:12:34.759Z,20
2018-11-20T13:13:47.916Z,20
2018-11-20T13:15:01.421Z,20
2018-11-20T13:16:11.234Z,20
2018-11-20T13:17:20.961Z,20
2018-11-20T13:18:31.367Z,20
2018-11-20T13:19:42.475Z,20
2018-11-20T13:20:56.837Z,20
2018-11-20T13:22:07.025Z,15
2018-11-20T13:23:17.037Z,20
2018-11-20T13:24:27.373Z,15
2018-11-20T13:25:37.443Z,15
2018-11-20T13:26:47.321Z,10
2018-11-20T13:27:57.394Z,15
2018-11-20T13:29:10.153Z,15
2018-11-20T13:30:19.962Z,15
2018-11-20T13:31:30.368Z,10
2018-11-20T13:32:40.597Z,15
2018-11-20T13:33:54.742Z,10
2018-11-20T13:35:05.052Z,10
2018-11-20T13:36:14.891Z,10
2018-11-20T13:37:25.528Z,10
2018-11-20T13:38:40.095Z,10
2018-11-20T13:39:51.843Z,10
2018-11-20T13:41:02.045Z,10
2018-11-20T13:42:12.122Z,10
2018-11-20T13:43:22.207Z,15
2018-11-20T13:44:32.064Z,15
2018-11-20T13:45:43.724Z,15
2018-11-20T13:46:53.915Z,15
2018-11-20T13:48:03.985Z,15
2018-11-20T13:49:14.402Z,15
2018-11-20T13:50:24.376Z,15
2018-11-20T13:51:34.333Z,15
2018-11-20T13:52:44.407Z,15
2018-11-20T13:53:54.608Z,15
2018-11-20T13:55:04.433Z,10
2018-11-20T13:56:14.285Z,10
2018-11-20T13:57:23.852Z,10
2018-11-20T13:58:33.662Z,5
2018-11-20T13:59:43.528Z,5
2018-11-20T14:00:53.456Z,5
2018-11-20T14:02:03.532Z,5
2018-11-20T14:03:13.338Z,5
2018-11-20T14:04:23.409Z,5
2018-11-20T14:05:33.512Z,5
2018-11-20T14:06:43.390Z,5
2018-11-20T14:07:53.664Z,5
2018-11-20T14:09:05.619Z,5
2018-11-20T14:10:15.164Z,5
2018-11-20T14:11:25.237Z,5
2018-11-20T14:12:34.781Z,5
2018-11-20T14:13:44.999Z,5
2018-11-20T14:14:54.799Z,5
2018-11-20T14:16:04.888Z,5
2018-11-20T14:17:14.712Z,5
2018-11-20T14:18:24.264Z,5
2018-11-20T14:19:33.815Z,5
2018-11-20T14:20:43.345Z,5
2018-11-20T14:21:53.166Z,5
2018-11-20T14:23:02.976Z,5
2018-11-20T14:24:12.570Z,5
2018-11-20T14:25:22.638Z,5
2018-11-20T14:26:32.517Z,5
2018-11-20T14:27:42.616Z,5
2018-11-20T14:28:52.708Z,5
2018-11-20T14:30:02.776Z,5
2018-11-20T14:31:12.635Z,5
2018-11-20T14:32:22.722Z,5
2018-11-20T14:33:32.793Z,5
2018-11-20T14:34:42.939Z,5
2018-11-20T14:35:52.749Z,5
2018-11-20T14:37:02.562Z,5
2018-11-20T14:38:12.090Z,5
2018-11-20T14:47:49.037Z,0
2018-11-20T14:48:58.625Z,0
2018-11-20T14:50:11.338Z,0
2018-11-20T14:51:20.899Z,0
2018-11-20T14:52:30.719Z,0
2018-11-20T14:53:40.267Z,0
2018-11-20T14:54:50.074Z,0
2018-11-20T14:56:00.142Z,0
2018-11-20T14:57:11.066Z,0
2018-11-20T14:58:20.887Z,0
2018-11-20T14:59:31.033Z,0
2018-11-20T15:00:41.111Z,0
2018-11-20T15:01:50.924Z,0
2018-11-20T15:03:00.454Z,0
2018-11-20T15:04:10.517Z,0
2018-11-20T15:05:20.437Z,0
2018-11-20T15:06:29.724Z,0
2018-11-20T15:07:39.549Z,0
2018-11-20T15:08:49.356Z,0
2018-11-20T15:09:59.534Z,0
2018-11-20T15:11:09.604Z,0
2018-11-20T15:12:19.666Z,0
2018-11-20T15:13:29.480Z,0
2018-11-20T15:14:39.540Z,0
2018-11-20T15:15:49.607Z,0
2018-11-20T15:16:59.428Z,0
2018-11-20T15:18:09.488Z,0
2018-11-20T15:19:19.295Z,0
2018-11-20T15:20:29.115Z,0
2018-11-20T15:21:38.922Z,0
2018-11-20T15:22:48.793Z,0
2018-11-20T15:23:58.855Z,0
2018-11-20T15:25:09.278Z,0
2018-11-20T15:26:19.112Z,0
2018-11-20T15:27:29.208Z,0
2018-11-20T15:28:39.345Z,0
2018-11-20T15:29:48.881Z,0
2018-11-20T15:30:58.422Z,0
2018-11-20T15:32:08.233Z,0
2018-11-20T15:33:17.536Z,0
2018-11-20T15:34:27.443Z,0
2018-11-20T15:35:37.257Z,0
2018-11-20T15:36:46.812Z,0
2018-11-20T15:37:56.623Z,0
2018-11-20T15:39:06.022Z,0
2018-11-20T15:40:15.684Z,0
2018-11-20T15:41:25.249Z,0
2018-11-20T15:42:34.811Z,0
2018-11-20T15:43:44.642Z,0
2018-11-20T15:44:54.482Z,0
2018-11-20T15:46:04.591Z,0
2018-11-20T15:47:14.661Z,0
2018-11-20T15:48:24.225Z,0
2018-11-20T15:49:39.967Z,0
2018-11-20T15:50:50.049Z,0
2018-11-20T15:51:59.864Z,0
2018-11-20T15:53:09.791Z,0
2018-11-20T15:54:19.380Z,0
2018-11-20T15:55:28.959Z,0
2018-11-20T15:56:38.764Z,0
2018-11-20T15:57:48.824Z,0
2018-11-20T15:58:58.106Z,0
2018-11-20T16:00:08.192Z,0
2018-11-20T16:01:25.505Z,0
2018-11-20T16:02:35.306Z,0
2018-11-20T16:03:45.127Z,0
2018-11-20T16:04:54.668Z,0
2018-11-20T16:06:05.753Z,0
2018-11-20T16:07:15.714Z,0
2018-11-20T16:08:25.837Z,0
2018-11-20T16:09:35.654Z,0
2018-11-20T16:10:45.758Z,0
2018-11-20T16:11:55.286Z,0
2018-11-20T16:13:05.758Z,0
2018-11-20T16:14:15.845Z,0
2018-11-20T16:15:25.663Z,0
2018-11-20T16:16:35.489Z,0
2018-11-20T16:17:45.584Z,0
2018-11-20T16:18:55.657Z,0
2018-11-20T16:20:05.756Z,0
2018-11-20T16:21:15.582Z,0
2018-11-20T16:22:25.749Z,0
2018-11-20T16:23:35.583Z,0
2018-11-20T16:24:45.407Z,0
2018-11-20T16:25:55.228Z,0
2018-11-20T16:27:04.886Z,0
2018-11-20T16:28:15.077Z,0
2018-11-20T16:29:25.220Z,0
2018-11-20T16:30:36.157Z,0
2018-11-20T16:31:46.242Z,0
2018-11-20T16:32:56.037Z,0
2018-11-20T16:34:05.631Z,0
2018-11-20T16:35:15.453Z,0
2018-11-20T16:36:25.279Z,0
2018-11-20T16:37:35.196Z,0
2018-11-20T16:38:45.279Z,0
2018-11-20T16:39:54.858Z,0
2018-11-20T16:41:04.664Z,0
2018-11-20T16:42:14.472Z,0
2018-11-20T16:43:24.294Z,0
2018-11-20T16:44:33.848Z,0
2018-11-20T16:45:43.705Z,0
2018-11-20T16:46:53.546Z,0
2018-11-20T16:48:03.095Z,0
2018-11-20T16:49:13.283Z,0
2018-11-20T16:50:23.099Z,0
2018-11-20T16:51:32.917Z,0
2018-11-20T16:52:42.710Z,0
2018-11-20T16:53:52.791Z,0
2018-11-20T16:55:03.754Z,0
2018-11-20T16:56:13.627Z,0
2018-11-20T16:57:23.897Z,0
2018-11-20T16:58:33.736Z,0
2018-11-20T16:59:43.557Z,0
2018-11-20T17:00:53.658Z,0
2018-11-20T17:02:03.489Z,0
2018-11-20T17:03:13.640Z,0
2018-11-20T17:04:23.457Z,0
2018-11-20T17:05:33.276Z,0
2018-11-20T17:06:43.339Z,0
2018-11-20T17:07:58.431Z,0
2018-11-20T17:09:08.561Z,0
2018-11-20T17:10:18.838Z,0
2018-11-20T17:11:28.699Z,0
2018-11-20T17:12:38.533Z,0
2018-11-20T17:13:48.619Z,0
2018-11-20T17:14:58.705Z,0
2018-11-20T17:16:08.701Z,0
2018-11-20T17:17:18.778Z,0
2018-11-20T17:18:28.587Z,0
2018-11-20T17:19:38.669Z,0
2018-11-20T17:20:48.486Z,0
2018-11-20T17:21:58.292Z,0
2018-11-20T17:23:12.879Z,0
2018-11-20T17:24:22.689Z,0
2018-11-20T17:25:32.773Z,0
2018-11-20T17:26:42.867Z,0
2018-11-20T17:27:52.721Z,0
2018-11-20T17:29:02.524Z,0
2018-11-20T17:30:12.356Z,0
2018-11-20T17:31:22.161Z,0
2018-11-20T17:32:31.840Z,0
2018-11-20T17:33:41.670Z,0
2018-11-20T17:34:51.499Z,0
2018-11-20T17:36:01.795Z,0
2018-11-20T17:37:11.894Z,0
2018-11-20T17:38:22.038Z,0
2018-11-20T17:39:32.134Z,0
2018-11-20T17:40:41.429Z,0
2018-11-20T17:41:51.561Z,0
2018-11-20T17:43:02.129Z,0
2018-11-20T17:44:11.995Z,0
2018-11-20T17:45:21.559Z,0